sensor_id;sensor_type;location;lat;lon;timestamp;pressure;altitude;pressure_sealevel;temperature;humidity
31005;BME280;17676;52.254;4.490;2023-04-25T00:00:13;101003.47;;;8.33;100.00
31005;BME280;17676;52.254;4.490;2023-04-25T00:02:42;101000.72;;;8.26;100.00
31005;BME280;17676;52.254;4.490;2023-04-25T00:05:08;101008.22;;;8.31;100.00
31005;BME280;17676;52.254;4.490;2023-04-25T00:07:34;101006.56;;;8.30;100.00
31005;BME280;17676;52.254;4.490;2023-04-25T00:10:00;100990.75;;;8.27;100.00
31005;BME280;17676;52.254;4.490;2023-04-25T00:12:26;101018.44;;;8.35;100.00
31005;BME280;17676;52.254;4.490;2023-04-25T00:14:54;101010.16;;;8.37;100.00
31005;BME280;17676;52.254;4.490;2023-04-25T00:17:22;101015.84;;;8.27;100.00
31005;BME280;17676;52.254;4.490;2023-04-25T00:19:50;101016.22;;;8.24;100.00
31005;BME280;17676;52.254;4.490;2023-04-25T00:22:16;101014.47;;;8.17;100.00
31005;BME280;17676;52.254;4.490;2023-04-25T00:24:42;101006.72;;;8.14;100.00
31005;BME280;17676;52.254;4.490;2023-04-25T00:27:08;101020.47;;;8.33;100.00
31005;BME280;17676;52.254;4.490;2023-04-25T00:29:33;101029.31;;;8.42;100.00
31005;BME280;17676;52.254;4.490;2023-04-25T00:31:59;101016.84;;;8.41;100.00
31005;BME280;17676;52.254;4.490;2023-04-25T00:34:25;101007.34;;;8.45;100.00
31005;BME280;17676;52.254;4.490;2023-04-25T00:36:51;101016.47;;;8.44;100.00
31005;BME280;17676;52.254;4.490;2023-04-25T00:39:17;101015.88;;;8.48;100.00
31005;BME280;17676;52.254;4.490;2023-04-25T00:41:43;101029.06;;;8.58;100.00
31005;BME280;17676;52.254;4.490;2023-04-25T00:44:11;101016.91;;;8.47;100.00
31005;BME280;17676;52.254;4.490;2023-04-25T00:46:38;101012.28;;;8.41;100.00
31005;BME280;17676;52.254;4.490;2023-04-25T00:49:04;101009.31;;;8.36;100.00
31005;BME280;17676;52.254;4.490;2023-04-25T00:51:30;101016.06;;;8.47;100.00
31005;BME280;17676;52.254;4.490;2023-04-25T00:53:58;101032.66;;;8.44;100.00
31005;BME280;17676;52.254;4.490;2023-04-25T00:56:24;101025.88;;;8.33;100.00
31005;BME280;17676;52.254;4.490;2023-04-25T01:01:58;101014.94;;;8.06;100.00
31005;BME280;17676;52.254;4.490;2023-04-25T01:04:23;101025.53;;;8.07;100.00
31005;BME280;17676;52.254;4.490;2023-04-25T01:06:49;101035.09;;;8.10;100.00
31005;BME280;17676;52.254;4.490;2023-04-25T01:09:16;101027.69;;;7.97;100.00
31005;BME280;17676;52.254;4.490;2023-04-25T01:11:41;101034.91;;;7.97;100.00
31005;BME280;17676;52.254;4.490;2023-04-25T01:14:07;101036.03;;;7.88;100.00
31005;BME280;17676;52.254;4.490;2023-04-25T01:16:32;101032.50;;;7.87;100.00
31005;BME280;17676;52.254;4.490;2023-04-25T01:18:58;101023.22;;;7.90;100.00
31005;BME280;17676;52.254;4.490;2023-04-25T01:21:24;101028.06;;;7.80;100.00
31005;BME280;17676;52.254;4.490;2023-04-25T01:23:52;101030.25;;;7.91;100.00
31005;BME280;17676;52.254;4.490;2023-04-25T01:26:19;101024.16;;;7.97;100.00
31005;BME280;17676;52.254;4.490;2023-04-25T01:28:46;101043.84;;;8.12;100.00
31005;BME280;17676;52.254;4.490;2023-04-25T01:31:12;101038.38;;;8.05;100.00
31005;BME280;17676;52.254;4.490;2023-04-25T01:33:38;101038.81;;;8.09;100.00
31005;BME280;17676;52.254;4.490;2023-04-25T01:36:04;101021.59;;;8.10;100.00
31005;BME280;17676;52.254;4.490;2023-04-25T01:38:30;101025.78;;;8.27;100.00
31005;BME280;17676;52.254;4.490;2023-04-25T01:40:55;101035.47;;;8.36;100.00
31005;BME280;17676;52.254;4.490;2023-04-25T01:43:21;101040.78;;;8.29;100.00
31005;BME280;17676;52.254;4.490;2023-04-25T01:45:48;101036.66;;;8.33;100.00
31005;BME280;17676;52.254;4.490;2023-04-25T01:48:14;101043.44;;;8.44;100.00
31005;BME280;17676;52.254;4.490;2023-04-25T01:50:41;101036.75;;;8.40;100.00
31005;BME280;17676;52.254;4.490;2023-04-25T01:53:09;101052.25;;;8.52;100.00
31005;BME280;17676;52.254;4.490;2023-04-25T01:55:36;101052.16;;;8.46;100.00
31005;BME280;17676;52.254;4.490;2023-04-25T01:58:03;101044.34;;;8.51;100.00
31005;BME280;17676;52.254;4.490;2023-04-25T02:00:28;101051.63;;;8.50;100.00
31005;BME280;17676;52.254;4.490;2023-04-25T02:02:58;101043.97;;;8.54;100.00
31005;BME280;17676;52.254;4.490;2023-04-25T02:05:26;101058.50;;;8.53;100.00
31005;BME280;17676;52.254;4.490;2023-04-25T02:07:53;101053.09;;;8.53;100.00
31005;BME280;17676;52.254;4.490;2023-04-25T02:10:19;101055.53;;;8.48;100.00
31005;BME280;17676;52.254;4.490;2023-04-25T02:12:44;101057.94;;;8.43;100.00
31005;BME280;17676;52.254;4.490;2023-04-25T02:15:16;101050.81;;;8.35;100.00
31005;BME280;17676;52.254;4.490;2023-04-25T02:17:41;101067.50;;;8.45;100.00
31005;BME280;17676;52.254;4.490;2023-04-25T02:20:07;101057.13;;;8.42;100.00
31005;BME280;17676;52.254;4.490;2023-04-25T02:22:33;101042.03;;;8.33;100.00
31005;BME280;17676;52.254;4.490;2023-04-25T02:25:00;101062.03;;;8.39;100.00
31005;BME280;17676;52.254;4.490;2023-04-25T02:27:26;101064.47;;;8.34;100.00
31005;BME280;17676;52.254;4.490;2023-04-25T02:29:52;101064.56;;;8.26;100.00
31005;BME280;17676;52.254;4.490;2023-04-25T02:32:17;101068.00;;;8.34;100.00
31005;BME280;17676;52.254;4.490;2023-04-25T02:34:43;101078.53;;;8.29;100.00
31005;BME280;17676;52.254;4.490;2023-04-25T02:37:08;101075.41;;;8.18;100.00
31005;BME280;17676;52.254;4.490;2023-04-25T02:39:34;101089.19;;;8.23;100.00
31005;BME280;17676;52.254;4.490;2023-04-25T02:42:00;101084.53;;;8.17;100.00
31005;BME280;17676;52.254;4.490;2023-04-25T02:44:26;101076.81;;;8.14;100.00
31005;BME280;17676;52.254;4.490;2023-04-25T02:46:51;101080.13;;;8.24;100.00
31005;BME280;17676;52.254;4.490;2023-04-25T02:49:17;101069.84;;;8.19;100.00
31005;BME280;17676;52.254;4.490;2023-04-25T02:51:43;101081.66;;;8.18;100.00
31005;BME280;17676;52.254;4.490;2023-04-25T02:54:09;101069.00;;;8.04;100.00
31005;BME280;17676;52.254;4.490;2023-04-25T02:56:35;101078.22;;;8.10;100.00
31005;BME280;17676;52.254;4.490;2023-04-25T02:59:00;101073.19;;;8.07;100.00
31005;BME280;17676;52.254;4.490;2023-04-25T03:01:26;101067.25;;;7.97;100.00
31005;BME280;17676;52.254;4.490;2023-04-25T03:03:52;101080.06;;;7.95;100.00
31005;BME280;17676;52.254;4.490;2023-04-25T03:06:17;101076.91;;;7.91;100.00
31005;BME280;17676;52.254;4.490;2023-04-25T03:08:43;101077.94;;;8.05;100.00
31005;BME280;17676;52.254;4.490;2023-04-25T03:11:08;101082.75;;;7.95;100.00
31005;BME280;17676;52.254;4.490;2023-04-25T03:13:34;101085.09;;;7.98;100.00
31005;BME280;17676;52.254;4.490;2023-04-25T03:15:59;101063.00;;;7.88;100.00
31005;BME280;17676;52.254;4.490;2023-04-25T03:18:25;101073.38;;;7.91;100.00
31005;BME280;17676;52.254;4.490;2023-04-25T03:20:50;101073.19;;;7.92;100.00
31005;BME280;17676;52.254;4.490;2023-04-25T03:23:16;101071.44;;;7.85;100.00
31005;BME280;17676;52.254;4.490;2023-04-25T03:25:42;101079.59;;;7.91;100.00
31005;BME280;17676;52.254;4.490;2023-04-25T03:28:08;101063.63;;;7.75;100.00
31005;BME280;17676;52.254;4.490;2023-04-25T03:30:36;101066.13;;;7.77;100.00
31005;BME280;17676;52.254;4.490;2023-04-25T03:33:02;101085.09;;;7.83;100.00
31005;BME280;17676;52.254;4.490;2023-04-25T03:35:28;101085.38;;;7.88;100.00
31005;BME280;17676;52.254;4.490;2023-04-25T03:37:53;101070.78;;;7.83;100.00
31005;BME280;17676;52.254;4.490;2023-04-25T03:40:19;101081.19;;;7.86;100.00
31005;BME280;17676;52.254;4.490;2023-04-25T03:42:45;101088.06;;;7.88;100.00
31005;BME280;17676;52.254;4.490;2023-04-25T03:45:11;101087.25;;;7.88;100.00
31005;BME280;17676;52.254;4.490;2023-04-25T03:47:36;101092.91;;;7.93;100.00
31005;BME280;17676;52.254;4.490;2023-04-25T03:50:03;101087.88;;;7.90;100.00
31005;BME280;17676;52.254;4.490;2023-04-25T03:52:29;101101.75;;;8.01;100.00
31005;BME280;17676;52.254;4.490;2023-04-25T03:54:54;101100.22;;;7.84;100.00
31005;BME280;17676;52.254;4.490;2023-04-25T03:57:20;101101.69;;;7.72;100.00
31005;BME280;17676;52.254;4.490;2023-04-25T03:59:46;101109.25;;;7.77;100.00
31005;BME280;17676;52.254;4.490;2023-04-25T04:02:11;101099.41;;;7.69;100.00
31005;BME280;17676;52.254;4.490;2023-04-25T04:04:37;101101.59;;;7.66;100.00
31005;BME280;17676;52.254;4.490;2023-04-25T04:07:03;101123.75;;;7.76;100.00
31005;BME280;17676;52.254;4.490;2023-04-25T04:09:29;101110.25;;;7.61;100.00
31005;BME280;17676;52.254;4.490;2023-04-25T04:11:55;101124.34;;;7.63;100.00
31005;BME280;17676;52.254;4.490;2023-04-25T04:14:20;101103.66;;;7.64;100.00
31005;BME280;17676;52.254;4.490;2023-04-25T04:16:46;101110.50;;;7.52;100.00
31005;BME280;17676;52.254;4.490;2023-04-25T04:19:11;101130.59;;;7.64;100.00
31005;BME280;17676;52.254;4.490;2023-04-25T04:21:38;101118.78;;;7.65;100.00
31005;BME280;17676;52.254;4.490;2023-04-25T04:24:03;101112.09;;;7.61;100.00
31005;BME280;17676;52.254;4.490;2023-04-25T04:26:29;101119.31;;;7.60;100.00
31005;BME280;17676;52.254;4.490;2023-04-25T04:29:06;101124.34;;;7.63;100.00
31005;BME280;17676;52.254;4.490;2023-04-25T04:31:33;101129.91;;;7.62;100.00
31005;BME280;17676;52.254;4.490;2023-04-25T04:33:59;101130.88;;;7.69;100.00
31005;BME280;17676;52.254;4.490;2023-04-25T04:36:27;101136.91;;;7.71;100.00
31005;BME280;17676;52.254;4.490;2023-04-25T04:38:53;101130.94;;;7.61;100.00
31005;BME280;17676;52.254;4.490;2023-04-25T04:41:19;101128.78;;;7.56;100.00
31005;BME280;17676;52.254;4.490;2023-04-25T04:43:45;101121.63;;;7.49;100.00
31005;BME280;17676;52.254;4.490;2023-04-25T04:46:10;101133.53;;;7.54;100.00
31005;BME280;17676;52.254;4.490;2023-04-25T04:48:38;101127.75;;;7.80;100.00
31005;BME280;17676;52.254;4.490;2023-04-25T04:51:05;101138.72;;;7.93;100.00
31005;BME280;17676;52.254;4.490;2023-04-25T04:53:31;101137.13;;;7.84;100.00
31005;BME280;17676;52.254;4.490;2023-04-25T04:55:56;101127.44;;;7.75;100.00
31005;BME280;17676;52.254;4.490;2023-04-25T04:58:23;101143.59;;;7.75;100.00
31005;BME280;17676;52.254;4.490;2023-04-25T05:00:49;101138.41;;;7.73;100.00
31005;BME280;17676;52.254;4.490;2023-04-25T05:03:15;101142.06;;;7.58;100.00
31005;BME280;17676;52.254;4.490;2023-04-25T05:05:41;101154.16;;;7.62;100.00
31005;BME280;17676;52.254;4.490;2023-04-25T05:08:07;101148.84;;;7.54;100.00
31005;BME280;17676;52.254;4.490;2023-04-25T05:10:34;101157.31;;;7.51;100.00
31005;BME280;17676;52.254;4.490;2023-04-25T05:13:00;101154.19;;;7.39;100.00
31005;BME280;17676;52.254;4.490;2023-04-25T05:15:26;101151.97;;;7.43;100.00
31005;BME280;17676;52.254;4.490;2023-04-25T05:17:52;101166.94;;;7.45;100.00
31005;BME280;17676;52.254;4.490;2023-04-25T05:20:18;101181.28;;;7.38;100.00
31005;BME280;17676;52.254;4.490;2023-04-25T05:22:44;101180.63;;;7.36;100.00
31005;BME280;17676;52.254;4.490;2023-04-25T05:25:10;101178.56;;;7.15;100.00
31005;BME280;17676;52.254;4.490;2023-04-25T05:27:36;101179.09;;;6.88;100.00
31005;BME280;17676;52.254;4.490;2023-04-25T05:30:03;101194.28;;;6.73;100.00
31005;BME280;17676;52.254;4.490;2023-04-25T05:32:30;101187.03;;;6.74;100.00
31005;BME280;17676;52.254;4.490;2023-04-25T05:34:55;101176.66;;;6.71;100.00
31005;BME280;17676;52.254;4.490;2023-04-25T05:37:21;101193.38;;;6.89;100.00
31005;BME280;17676;52.254;4.490;2023-04-25T05:39:48;101202.16;;;6.83;100.00
31005;BME280;17676;52.254;4.490;2023-04-25T05:42:14;101197.69;;;6.98;100.00
31005;BME280;17676;52.254;4.490;2023-04-25T05:44:40;101198.66;;;7.05;100.00
31005;BME280;17676;52.254;4.490;2023-04-25T05:47:06;101200.28;;;7.14;100.00
31005;BME280;17676;52.254;4.490;2023-04-25T05:49:34;101220.34;;;7.34;100.00
31005;BME280;17676;52.254;4.490;2023-04-25T05:52:00;101207.50;;;7.44;100.00
31005;BME280;17676;52.254;4.490;2023-04-25T05:54:25;101205.72;;;7.59;100.00
31005;BME280;17676;52.254;4.490;2023-04-25T05:56:51;101218.56;;;7.71;100.00
31005;BME280;17676;52.254;4.490;2023-04-25T05:59:17;101219.50;;;7.78;100.00
31005;BME280;17676;52.254;4.490;2023-04-25T06:01:42;101220.78;;;8.05;100.00
31005;BME280;17676;52.254;4.490;2023-04-25T06:04:08;101234.25;;;8.42;100.00
31005;BME280;17676;52.254;4.490;2023-04-25T06:06:33;101224.69;;;8.39;100.00
31005;BME280;17676;52.254;4.490;2023-04-25T06:08:59;101210.75;;;8.36;100.00
31005;BME280;17676;52.254;4.490;2023-04-25T06:11:28;101233.34;;;8.64;100.00
31005;BME280;17676;52.254;4.490;2023-04-25T06:13:54;101243.38;;;8.84;100.00
31005;BME280;17676;52.254;4.490;2023-04-25T06:16:20;101238.38;;;8.96;100.00
31005;BME280;17676;52.254;4.490;2023-04-25T06:18:45;101233.50;;;9.06;100.00
31005;BME280;17676;52.254;4.490;2023-04-25T06:21:11;101223.44;;;9.00;100.00
31005;BME280;17676;52.254;4.490;2023-04-25T06:23:36;101226.59;;;9.18;100.00
31005;BME280;17676;52.254;4.490;2023-04-25T06:26:02;101246.94;;;9.35;100.00
31005;BME280;17676;52.254;4.490;2023-04-25T06:28:28;101257.69;;;9.49;100.00
31005;BME280;17676;52.254;4.490;2023-04-25T06:30:54;101251.19;;;9.44;100.00
31005;BME280;17676;52.254;4.490;2023-04-25T06:33:20;101245.63;;;9.31;100.00
31005;BME280;17676;52.254;4.490;2023-04-25T06:35:46;101265.91;;;9.41;100.00
31005;BME280;17676;52.254;4.490;2023-04-25T06:38:12;101253.22;;;9.21;100.00
31005;BME280;17676;52.254;4.490;2023-04-25T06:40:38;101261.47;;;9.34;100.00
31005;BME280;17676;52.254;4.490;2023-04-25T06:43:06;101252.81;;;9.24;100.00
31005;BME280;17676;52.254;4.490;2023-04-25T06:45:34;101258.44;;;9.79;100.00
31005;BME280;17676;52.254;4.490;2023-04-25T06:48:00;101260.53;;;10.53;100.00
31005;BME280;17676;52.254;4.490;2023-04-25T06:50:26;101261.50;;;11.07;100.00
31005;BME280;17676;52.254;4.490;2023-04-25T06:52:51;101284.25;;;11.66;100.00
31005;BME280;17676;52.254;4.490;2023-04-25T06:55:20;101276.66;;;11.42;100.00
31005;BME280;17676;52.254;4.490;2023-04-25T06:57:46;101280.53;;;11.80;100.00
31005;BME280;17676;52.254;4.490;2023-04-25T07:00:12;101292.41;;;11.19;100.00
31005;BME280;17676;52.254;4.490;2023-04-25T07:02:38;101299.28;;;11.22;100.00
31005;BME280;17676;52.254;4.490;2023-04-25T07:05:03;101299.19;;;11.02;100.00
31005;BME280;17676;52.254;4.490;2023-04-25T07:07:30;101303.38;;;10.77;100.00
31005;BME280;17676;52.254;4.490;2023-04-25T07:09:56;101303.81;;;10.74;100.00
31005;BME280;17676;52.254;4.490;2023-04-25T07:12:25;101299.97;;;10.62;100.00
31005;BME280;17676;52.254;4.490;2023-04-25T07:14:50;101305.53;;;10.88;100.00
31005;BME280;17676;52.254;4.490;2023-04-25T07:17:16;101298.75;;;11.46;100.00
31005;BME280;17676;52.254;4.490;2023-04-25T07:19:41;101297.22;;;12.94;100.00
31005;BME280;17676;52.254;4.490;2023-04-25T07:22:07;101298.06;;;13.96;100.00
31005;BME280;17676;52.254;4.490;2023-04-25T07:24:32;101311.97;;;14.12;100.00
31005;BME280;17676;52.254;4.490;2023-04-25T07:26:58;101304.41;;;15.31;100.00
31005;BME280;17676;52.254;4.490;2023-04-25T07:29:23;101317.00;;;15.97;100.00
31005;BME280;17676;52.254;4.490;2023-04-25T07:31:49;101315.41;;;15.90;100.00
31005;BME280;17676;52.254;4.490;2023-04-25T07:34:15;101320.72;;;16.44;100.00
31005;BME280;17676;52.254;4.490;2023-04-25T07:36:41;101325.38;;;17.47;100.00
31005;BME280;17676;52.254;4.490;2023-04-25T07:39:07;101329.28;;;16.47;100.00
31005;BME280;17676;52.254;4.490;2023-04-25T07:41:34;101329.94;;;16.84;100.00
31005;BME280;17676;52.254;4.490;2023-04-25T07:44:00;101328.91;;;16.03;100.00
31005;BME280;17676;52.254;4.490;2023-04-25T07:46:26;101328.31;;;15.35;100.00
31005;BME280;17676;52.254;4.490;2023-04-25T07:48:52;101331.59;;;14.27;100.00
31005;BME280;17676;52.254;4.490;2023-04-25T07:51:18;101342.47;;;15.44;100.00
31005;BME280;17676;52.254;4.490;2023-04-25T07:53:45;101347.25;;;16.55;100.00
31005;BME280;17676;52.254;4.490;2023-04-25T07:56:11;101354.41;;;17.02;100.00
31005;BME280;17676;52.254;4.490;2023-04-25T07:58:37;101352.13;;;17.33;100.00
31005;BME280;17676;52.254;4.490;2023-04-25T08:01:03;101357.41;;;17.12;100.00
31005;BME280;17676;52.254;4.490;2023-04-25T08:03:28;101352.25;;;18.45;100.00
31005;BME280;17676;52.254;4.490;2023-04-25T08:05:54;101366.75;;;18.01;100.00
31005;BME280;17676;52.254;4.490;2023-04-25T08:08:21;101355.34;;;16.32;100.00
31005;BME280;17676;52.254;4.490;2023-04-25T08:10:46;101384.59;;;15.30;100.00
31005;BME280;17676;52.254;4.490;2023-04-25T08:13:13;101378.38;;;14.11;100.00
31005;BME280;17676;52.254;4.490;2023-04-25T08:15:39;101373.25;;;13.90;100.00
31005;BME280;17676;52.254;4.490;2023-04-25T08:18:05;101375.19;;;13.20;100.00
31005;BME280;17676;52.254;4.490;2023-04-25T08:20:30;101383.09;;;12.30;100.00
31005;BME280;17676;52.254;4.490;2023-04-25T08:22:56;101393.75;;;12.45;100.00
31005;BME280;17676;52.254;4.490;2023-04-25T08:25:22;101407.53;;;12.37;100.00
31005;BME280;17676;52.254;4.490;2023-04-25T08:27:48;101395.47;;;12.52;100.00
31005;BME280;17676;52.254;4.490;2023-04-25T08:30:14;101391.19;;;13.54;100.00
31005;BME280;17676;52.254;4.490;2023-04-25T08:32:40;101412.38;;;13.96;100.00
31005;BME280;17676;52.254;4.490;2023-04-25T08:35:06;101425.47;;;14.18;100.00
31005;BME280;17676;52.254;4.490;2023-04-25T08:37:32;101426.19;;;13.94;100.00
31005;BME280;17676;52.254;4.490;2023-04-25T08:39:57;101441.28;;;13.14;100.00
31005;BME280;17676;52.254;4.490;2023-04-25T08:42:24;101437.13;;;11.31;100.00
31005;BME280;17676;52.254;4.490;2023-04-25T08:44:53;101454.50;;;9.96;100.00
31005;BME280;17676;52.254;4.490;2023-04-25T08:47:22;101452.31;;;9.85;100.00
31005;BME280;17676;52.254;4.490;2023-04-25T08:49:48;101448.81;;;10.83;100.00
31005;BME280;17676;52.254;4.490;2023-04-25T08:52:23;101447.63;;;10.92;100.00
31005;BME280;17676;52.254;4.490;2023-04-25T08:54:52;101472.53;;;11.91;100.00
31005;BME280;17676;52.254;4.490;2023-04-25T08:57:21;101469.47;;;12.93;100.00
31005;BME280;17676;52.254;4.490;2023-04-25T08:59:47;101463.94;;;13.78;100.00
31005;BME280;17676;52.254;4.490;2023-04-25T09:02:14;101460.28;;;13.27;100.00
31005;BME280;17676;52.254;4.490;2023-04-25T09:04:44;101463.00;;;12.08;100.00
31005;BME280;17676;52.254;4.490;2023-04-25T09:07:14;101479.63;;;11.03;100.00
31005;BME280;17676;52.254;4.490;2023-04-25T09:09:44;101472.66;;;10.73;100.00
31005;BME280;17676;52.254;4.490;2023-04-25T09:12:10;101482.19;;;10.69;100.00
31005;BME280;17676;52.254;4.490;2023-04-25T09:14:36;101480.84;;;10.59;100.00
31005;BME280;17676;52.254;4.490;2023-04-25T09:17:03;101480.28;;;10.63;100.00
31005;BME280;17676;52.254;4.490;2023-04-25T09:19:34;101467.63;;;12.21;100.00
31005;BME280;17676;52.254;4.490;2023-04-25T09:22:06;101474.25;;;14.26;100.00
31005;BME280;17676;52.254;4.490;2023-04-25T09:24:33;101467.75;;;15.63;100.00
31005;BME280;17676;52.254;4.490;2023-04-25T09:26:58;101467.56;;;15.83;100.00
31005;BME280;17676;52.254;4.490;2023-04-25T09:29:32;101475.84;;;16.60;100.00
31005;BME280;17676;52.254;4.490;2023-04-25T09:32:24;101486.94;;;17.29;100.00
31005;BME280;17676;52.254;4.490;2023-04-25T09:34:53;101488.03;;;17.28;100.00
31005;BME280;17676;52.254;4.490;2023-04-25T09:37:23;101496.50;;;16.85;100.00
31005;BME280;17676;52.254;4.490;2023-04-25T09:39:53;101496.63;;;16.61;100.00
31005;BME280;17676;52.254;4.490;2023-04-25T09:42:22;101482.09;;;16.31;100.00
31005;BME280;17676;52.254;4.490;2023-04-25T09:44:52;101490.09;;;17.03;100.00
31005;BME280;17676;52.254;4.490;2023-04-25T09:47:18;101489.38;;;15.47;100.00
31005;BME280;17676;52.254;4.490;2023-04-25T09:49:46;101495.97;;;14.39;100.00
31005;BME280;17676;52.254;4.490;2023-04-25T09:52:17;101503.94;;;13.58;100.00
31005;BME280;17676;52.254;4.490;2023-04-25T09:54:45;101490.94;;;13.79;100.00
31005;BME280;17676;52.254;4.490;2023-04-25T09:57:21;101511.28;;;13.51;100.00
31005;BME280;17676;52.254;4.490;2023-04-25T09:59:51;101496.19;;;13.74;100.00
31005;BME280;17676;52.254;4.490;2023-04-25T10:02:19;101503.66;;;15.42;100.00
31005;BME280;17676;52.254;4.490;2023-04-25T10:04:48;101502.31;;;16.12;100.00
31005;BME280;17676;52.254;4.490;2023-04-25T10:07:17;101527.09;;;16.28;100.00
31005;BME280;17676;52.254;4.490;2023-04-25T10:09:44;101509.34;;;16.96;100.00
31005;BME280;17676;52.254;4.490;2023-04-25T10:12:12;101534.44;;;16.64;100.00
31005;BME280;17676;52.254;4.490;2023-04-25T10:14:38;101519.00;;;17.51;100.00
31005;BME280;17676;52.254;4.490;2023-04-25T10:17:04;101511.84;;;16.98;100.00
31005;BME280;17676;52.254;4.490;2023-04-25T10:19:32;101516.38;;;17.56;100.00
31005;BME280;17676;52.254;4.490;2023-04-25T10:24:28;101532.38;;;17.18;100.00
31005;BME280;17676;52.254;4.490;2023-04-25T10:26:56;101530.16;;;18.30;100.00
31005;BME280;17676;52.254;4.490;2023-04-25T10:29:24;101539.59;;;17.54;100.00
31005;BME280;17676;52.254;4.490;2023-04-25T10:31:50;101539.78;;;18.33;100.00
31005;BME280;17676;52.254;4.490;2023-04-25T10:34:17;101557.34;;;17.86;100.00
31005;BME280;17676;52.254;4.490;2023-04-25T10:36:43;101538.31;;;16.74;100.00
31005;BME280;17676;52.254;4.490;2023-04-25T10:39:23;101537.97;;;16.35;100.00
31005;BME280;17676;52.254;4.490;2023-04-25T10:41:57;101539.16;;;17.16;100.00
31005;BME280;17676;52.254;4.490;2023-04-25T10:44:26;101533.53;;;17.52;100.00
31005;BME280;17676;52.254;4.490;2023-04-25T10:46:55;101532.38;;;17.18;100.00
31005;BME280;17676;52.254;4.490;2023-04-25T10:49:48;101533.53;;;17.98;100.00
31005;BME280;17676;52.254;4.490;2023-04-25T10:52:18;101545.97;;;16.95;100.00
31005;BME280;17676;52.254;4.490;2023-04-25T10:54:50;101544.88;;;16.85;100.00
31005;BME280;17676;52.254;4.490;2023-04-25T10:57:46;101554.28;;;16.89;100.00
31005;BME280;17676;52.254;4.490;2023-04-25T11:00:15;101540.81;;;16.58;100.00
31005;BME280;17676;52.254;4.490;2023-04-25T11:02:48;101561.47;;;16.36;100.00
31005;BME280;17676;52.254;4.490;2023-04-25T11:05:31;101561.06;;;16.68;100.00
31005;BME280;17676;52.254;4.490;2023-04-25T11:07:58;101561.47;;;16.36;100.00
31005;BME280;17676;52.254;4.490;2023-04-25T11:10:28;101561.34;;;15.70;100.00
31005;BME280;17676;52.254;4.490;2023-04-25T11:12:55;101554.63;;;15.17;100.00
31005;BME280;17676;52.254;4.490;2023-04-25T11:15:21;101568.06;;;15.92;100.00
31005;BME280;17676;52.254;4.490;2023-04-25T11:17:47;101556.78;;;15.40;100.00
31005;BME280;17676;52.254;4.490;2023-04-25T11:20:13;101550.31;;;15.59;100.00
31005;BME280;17676;52.254;4.490;2023-04-25T11:22:39;101571.75;;;15.80;100.00
31005;BME280;17676;52.254;4.490;2023-04-25T11:25:10;101563.66;;;15.91;100.00
31005;BME280;17676;52.254;4.490;2023-04-25T11:27:57;101560.56;;;16.24;100.00
31005;BME280;17676;52.254;4.490;2023-04-25T11:30:25;101551.00;;;15.97;100.00
31005;BME280;17676;52.254;4.490;2023-04-25T11:32:51;101569.88;;;15.80;100.00
31005;BME280;17676;52.254;4.490;2023-04-25T11:35:19;101560.38;;;15.83;100.00
31005;BME280;17676;52.254;4.490;2023-04-25T11:37:45;101570.41;;;15.89;100.00
31005;BME280;17676;52.254;4.490;2023-04-25T11:40:11;101566.50;;;15.54;100.00
31005;BME280;17676;52.254;4.490;2023-04-25T11:42:38;101578.00;;;14.62;100.00
31005;BME280;17676;52.254;4.490;2023-04-25T11:45:05;101583.22;;;14.70;100.00
31005;BME280;17676;52.254;4.490;2023-04-25T11:47:31;101569.44;;;13.69;100.00
31005;BME280;17676;52.254;4.490;2023-04-25T11:49:59;101577.78;;;13.81;100.00
31005;BME280;17676;52.254;4.490;2023-04-25T11:52:45;101575.97;;;14.51;100.00
31005;BME280;17676;52.254;4.490;2023-04-25T11:55:17;101579.56;;;14.45;100.00
31005;BME280;17676;52.254;4.490;2023-04-25T11:57:45;101579.34;;;14.40;100.00
31005;BME280;17676;52.254;4.490;2023-04-25T12:00:12;101592.84;;;13.90;100.00
31005;BME280;17676;52.254;4.490;2023-04-25T12:02:45;101598.06;;;14.17;100.00
31005;BME280;17676;52.254;4.490;2023-04-25T12:05:13;101597.28;;;13.84;100.00
31005;BME280;17676;52.254;4.490;2023-04-25T12:07:39;101604.56;;;14.03;100.00
31005;BME280;17676;52.254;4.490;2023-04-25T12:10:12;101598.34;;;13.44;100.00
31005;BME280;17676;52.254;4.490;2023-04-25T12:12:41;101592.88;;;13.96;100.00
31005;BME280;17676;52.254;4.490;2023-04-25T12:15:19;101589.44;;;14.33;100.00
31005;BME280;17676;52.254;4.490;2023-04-25T12:17:49;101616.09;;;13.66;100.00
31005;BME280;17676;52.254;4.490;2023-04-25T12:20:20;101601.03;;;13.96;100.00
31005;BME280;17676;52.254;4.490;2023-04-25T12:22:49;101590.31;;;14.08;100.00
31005;BME280;17676;52.254;4.490;2023-04-25T12:25:37;101605.81;;;14.77;100.00
31005;BME280;17676;52.254;4.490;2023-04-25T12:28:14;101598.41;;;14.40;100.00
31005;BME280;17676;52.254;4.490;2023-04-25T12:33:26;101614.41;;;14.04;100.00
31005;BME280;17676;52.254;4.490;2023-04-25T12:35:53;101603.28;;;14.06;100.00
31005;BME280;17676;52.254;4.490;2023-04-25T12:38:53;101629.72;;;13.60;100.00
31005;BME280;17676;52.254;4.490;2023-04-25T12:41:26;101622.56;;;13.26;100.00
31005;BME280;17676;52.254;4.490;2023-04-25T12:44:02;101620.66;;;12.60;100.00
31005;BME280;17676;52.254;4.490;2023-04-25T12:49:36;101637.19;;;13.25;100.00
31005;BME280;17676;52.254;4.490;2023-04-25T12:52:02;101621.38;;;12.82;100.00
31005;BME280;17676;52.254;4.490;2023-04-25T12:54:27;101631.63;;;12.86;100.00
31005;BME280;17676;52.254;4.490;2023-04-25T12:56:53;101628.34;;;12.97;100.00